Time,TemperatureF,DewpointF,PressureIn,WindDirection,WindDirectionDegrees,WindSpeedMPH,WindSpeedGustMPH,Humidity,HourlyPrecipIn,Conditions,Clouds,dailyrainin,SoftwareType,DateUTC
2013-06-12 00:02:00,80.9,71.4,29.67,South,180,6.9,6.9,73,0.00,CLR,,0.00,WeatherDisplay:10.37,2013-06-12 05:02:00,
2013-06-12 00:07:00,80.7,71.6,29.67,South,182,10.4,10.4,74,0.00,CLR,,0.00,WeatherDisplay:10.37,2013-06-12 05:07:00,
2013-06-12 00:12:00,80.6,71.5,29.67,South,184,5.0,5.0,74,0.00,CLR,,0.00,WeatherDisplay:10.37,2013-06-12 05:12:00,
2013-06-12 00:17:00,80.5,71.4,29.67,SSW,200,11.5,11.5,74,0.00,CLR,,0.00,WeatherDisplay:10.37,2013-06-12 05:17:00,
2013-06-12 00:22:00,80.3,71.6,29.67,South,170,12.7,12.7,75,0.00,CLR,,0.00,WeatherDisplay:10.37,2013-06-12 05:22:00,
2013-06-12 00:27:00,80.3,71.6,29.67,South,173,5.8,5.8,75,0.00,CLR,,0.00,WeatherDisplay:10.37,2013-06-12 05:27:00,
2013-06-12 00:32:00,80.2,71.6,29.67,South,182,11.5,11.5,75,0.00,CLR,,0.00,WeatherDisplay:10.37,2013-06-12 05:32:00,
2013-06-12 00:37:00,80.2,71.6,29.67,South,181,11.5,11.5,75,0.00,CLR,,0.00,WeatherDisplay:10.37,2013-06-12 05:37:00,
2013-06-12 00:42:00,80.0,71.8,29.67,South,190,13.8,13.8,76,0.00,CLR,,0.00,WeatherDisplay:10.37,2013-06-12 05:42:00,
2013-06-12 00:47:00,80.0,71.8,29.66,South,175,9.2,9.2,76,0.00,CLR,,0.00,WeatherDisplay:10.37,2013-06-12 05:47:00,
2013-06-12 00:52:00,79.9,71.7,29.66,SSE,148,5.8,5.8,76,0.00,CLR,,0.00,WeatherDisplay:10.37,2013-06-12 05:52:00,
2013-06-12 00:57:00,79.8,71.6,29.66,SSE,157,12.0,12.0,76,0.00,CLR,,0.00,WeatherDisplay:10.37,2013-06-12 05:57:00,
2013-06-12 01:02:00,79.8,71.6,29.66,South,188,10.4,10.4,76,0.00,CLR,,0.00,WeatherDisplay:10.37,2013-06-12 06:02:00,
2013-06-12 01:07:00,79.7,71.5,29.66,SE,146,16.1,16.1,76,0.00,CLR,,0.00,WeatherDisplay:10.37,2013-06-12 06:07:00,
2013-06-12 01:12:00,79.6,71.8,29.67,South,183,4.6,4.6,77,0.00,CLR,,0.00,WeatherDisplay:10.37,2013-06-12 06:12:00,
2013-06-12 01:17:00,79.6,71.8,29.67,South,176,9.2,9.2,77,0.00,CLR,,0.00,WeatherDisplay:10.37,2013-06-12 06:17:00,
2013-06-12 01:22:00,79.6,71.4,29.67,SSW,192,9.2,9.2,76,0.00,CLR,,0.00,WeatherDisplay:10.37,2013-06-12 06:22:00,
2013-06-12 01:27:00,79.5,71.7,29.67,South,188,11.5,11.5,77,0.00,CLR,,0.00,WeatherDisplay:10.37,2013-06-12 06:27:00,
2013-06-12 01:32:00,79.5,71.7,29.66,SSE,166,9.2,9.2,77,0.00,CLR,,0.00,WeatherDisplay:10.37,2013-06-12 06:32:00,
2013-06-12 01:37:00,79.5,71.7,29.66,South,182,13.8,13.8,77,0.00,CLR,,0.00,WeatherDisplay:10.37,2013-06-12 06:37:00,
2013-06-12 01:42:00,79.5,71.7,29.66,SSE,161,10.4,10.4,77,0.00,CLR,,0.00,WeatherDisplay:10.37,2013-06-12 06:42:00,
2013-06-12 01:47:00,79.4,71.6,29.67,South,172,9.2,9.2,77,0.00,CLR,,0.00,WeatherDisplay:10.37,2013-06-12 06:47:00,
2013-06-12 01:52:00,79.3,71.5,29.66,South,191,10.4,10.4,77,0.00,CLR,,0.00,WeatherDisplay:10.37,2013-06-12 06:52:00,
2013-06-12 01:57:00,79.2,71.4,29.66,South,184,12.7,12.7,77,0.00,CLR,,0.00,WeatherDisplay:10.37,2013-06-12 06:57:00,
2013-06-12 02:02:00,79.2,71.4,29.66,SSW,196,15.0,15.0,77,0.00,CLR,,0.00,WeatherDisplay:10.37,2013-06-12 07:02:00,
2013-06-12 02:07:00,79.1,71.3,29.66,South,180,9.2,9.2,77,0.00,CLR,,0.00,WeatherDisplay:10.37,2013-06-12 07:07:00,
2013-06-12 02:12:00,79.1,71.3,29.66,South,184,17.3,17.3,77,0.00,CLR,,0.00,WeatherDisplay:10.37,2013-06-12 07:12:00,
2013-06-12 02:17:00,79.1,70.9,29.65,SSW,194,10.4,10.4,76,0.00,CLR,,0.00,WeatherDisplay:10.37,2013-06-12 07:17:00,
2013-06-12 02:22:00,79.0,71.2,29.65,South,182,6.9,6.9,77,0.00,CLR,,0.00,WeatherDisplay:10.37,2013-06-12 07:22:00,
2013-06-12 02:27:00,79.0,70.8,29.65,South,173,11.5,11.5,76,0.00,CLR,,0.00,WeatherDisplay:10.37,2013-06-12 07:27:00,
2013-06-12 02:32:00,79.0,70.8,29.65,SSW,199,10.4,10.4,76,0.00,CLR,,0.00,WeatherDisplay:10.37,2013-06-12 07:32:00,
2013-06-12 02:37:00,78.9,71.1,29.65,South,179,15.0,15.0,77,0.00,CLR,,0.00,WeatherDisplay:10.37,2013-06-12 07:37:00,
2013-06-12 02:42:00,78.8,71.0,29.65,South,179,4.0,4.0,77,0.00,CLR,,0.00,WeatherDisplay:10.37,2013-06-12 07:42:00,
2013-06-12 02:47:00,78.7,70.9,29.66,South,182,10.4,10.4,77,0.00,CLR,,0.00,WeatherDisplay:10.37,2013-06-12 07:47:00,
2013-06-12 02:52:00,78.7,70.9,29.66,South,190,11.5,11.5,77,0.00,CLR,,0.00,WeatherDisplay:10.37,2013-06-12 07:52:00,
2013-06-12 02:57:00,78.7,70.9,29.65,South,186,6.0,6.0,77,0.00,CLR,,0.00,WeatherDisplay:10.37,2013-06-12 07:57:00,
2013-06-12 03:02:00,78.5,71.1,29.65,South,187,4.6,4.6,78,0.00,CLR,,0.00,WeatherDisplay:10.37,2013-06-12 08:02:00,
2013-06-12 03:07:00,78.4,71.0,29.65,WSW,246,7.0,7.0,78,0.00,CLR,,0.00,WeatherDisplay:10.37,2013-06-12 08:07:00,
2013-06-12 03:12:00,78.3,70.9,29.65,SSW,205,11.5,11.5,78,0.00,CLR,,0.00,WeatherDisplay:10.37,2013-06-12 08:12:00,
2013-06-12 03:18:00,78.2,70.8,29.65,South,177,10.4,10.4,78,0.00,CLR,,0.00,WeatherDisplay:10.37,2013-06-12 08:18:00,
2013-06-12 03:23:00,78.1,70.7,29.65,South,182,5.0,6.3,78,0.00,CLR,,0.00,WeatherDisplay:10.37,2013-06-12 08:23:00,
2013-06-12 03:28:00,78.1,71.1,29.65,South,185,5.8,5.8,79,0.00,CLR,,0.00,WeatherDisplay:10.37,2013-06-12 08:28:00,
2013-06-12 03:33:00,77.9,70.9,29.65,SSW,198,10.4,10.4,79,0.00,CLR,,0.00,WeatherDisplay:10.37,2013-06-12 08:33:00,
2013-06-12 03:38:00,77.9,70.9,29.64,SW,225,9.2,9.2,79,0.00,CLR,,0.00,WeatherDisplay:10.37,2013-06-12 08:38:00,
2013-06-12 03:43:00,77.8,70.8,29.64,SSW,196,9.2,9.2,79,0.00,CLR,,0.00,WeatherDisplay:10.37,2013-06-12 08:43:00,
2013-06-12 03:48:00,77.8,70.8,29.64,South,177,16.1,16.1,79,0.00,CLR,,0.00,WeatherDisplay:10.37,2013-06-12 08:48:00,
2013-06-12 03:53:00,77.9,70.9,29.64,South,179,11.5,11.5,79,0.00,CLR,,0.00,WeatherDisplay:10.37,2013-06-12 08:53:00,
2013-06-12 03:58:00,77.8,70.8,29.64,South,188,11.0,11.0,79,0.00,CLR,,0.00,WeatherDisplay:10.37,2013-06-12 08:58:00,
2013-06-12 04:03:00,77.8,70.8,29.64,South,179,9.2,9.2,79,0.00,CLR,,0.00,WeatherDisplay:10.37,2013-06-12 09:03:00,
2013-06-12 04:08:00,77.7,70.7,29.64,South,186,5.8,5.8,79,0.00,CLR,,0.00,WeatherDisplay:10.37,2013-06-12 09:08:00,
2013-06-12 04:13:00,77.6,70.6,29.64,South,190,13.8,13.8,79,0.00,CLR,,0.00,WeatherDisplay:10.37,2013-06-12 09:13:00,
2013-06-12 04:18:00,77.6,70.6,29.64,SSE,150,10.4,10.4,79,0.00,CLR,,0.00,WeatherDisplay:10.37,2013-06-12 09:18:00,
2013-06-12 04:23:00,77.5,70.5,29.64,South,191,12.7,12.7,79,0.00,CLR,,0.00,WeatherDisplay:10.37,2013-06-12 09:23:00,
2013-06-12 04:28:00,77.4,70.4,29.64,South,188,6.9,6.9,79,0.00,CLR,,0.00,WeatherDisplay:10.37,2013-06-12 09:28:00,
2013-06-12 04:33:00,77.3,70.3,29.64,South,180,7.0,7.0,79,0.00,CLR,,0.00,WeatherDisplay:10.37,2013-06-12 09:33:00,
2013-06-12 04:38:00,77.2,70.5,29.65,South,190,10.4,10.4,80,0.00,CLR,,0.00,WeatherDisplay:10.37,2013-06-12 09:38:00,
2013-06-12 04:43:00,77.1,70.5,29.65,South,182,11.5,11.5,80,0.00,CLR,,0.00,WeatherDisplay:10.37,2013-06-12 09:43:00,
2013-06-12 04:48:00,77.0,70.4,29.65,South,190,11.5,11.5,80,0.00,CLR,,0.00,WeatherDisplay:10.37,2013-06-12 09:48:00,
2013-06-12 04:53:00,76.9,70.3,29.65,SSW,203,9.2,9.2,80,0.00,CLR,,0.00,WeatherDisplay:10.37,2013-06-12 09:53:00,
2013-06-12 04:58:00,76.8,70.2,29.65,SSE,149,11.5,11.5,80,0.00,CLR,,0.00,WeatherDisplay:10.37,2013-06-12 09:58:00,
2013-06-12 05:03:00,76.8,70.2,29.65,South,190,10.4,10.4,80,0.00,CLR,,0.00,WeatherDisplay:10.37,2013-06-12 10:03:00,
2013-06-12 05:08:00,76.8,70.2,29.65,SSW,208,10.0,10.0,80,0.00,CLR,,0.00,WeatherDisplay:10.37,2013-06-12 10:08:00,
2013-06-12 05:13:00,76.9,69.9,29.65,South,179,15.0,15.0,79,0.00,CLR,,0.00,WeatherDisplay:10.37,2013-06-12 10:13:00,
2013-06-12 05:18:00,76.9,69.9,29.65,SSE,167,11.5,11.5,79,0.00,CLR,,0.00,WeatherDisplay:10.37,2013-06-12 10:18:00,
2013-06-12 05:23:00,76.9,69.9,29.65,South,183,12.7,12.7,79,0.00,CLR,,0.00,WeatherDisplay:10.37,2013-06-12 10:23:00,
2013-06-12 05:28:00,76.9,69.9,29.65,South,182,6.9,6.9,79,0.00,CLR,,0.00,WeatherDisplay:10.37,2013-06-12 10:28:00,
2013-06-12 05:33:00,76.9,69.9,29.65,SSE,163,12.0,12.0,79,0.00,CLR,,0.00,WeatherDisplay:10.37,2013-06-12 10:33:00,
2013-06-12 05:38:00,76.9,69.9,29.65,South,178,4.6,4.6,79,0.00,CLR,,0.00,WeatherDisplay:10.37,2013-06-12 10:38:00,
2013-06-12 05:43:00,76.8,69.8,29.66,South,175,6.0,6.0,79,0.00,CLR,,0.00,WeatherDisplay:10.37,2013-06-12 10:43:00,
2013-06-12 05:48:00,76.7,69.7,29.66,South,184,11.5,11.5,79,0.00,CLR,,0.00,WeatherDisplay:10.37,2013-06-12 10:48:00,
2013-06-12 05:53:00,76.7,69.7,29.66,South,186,3.5,3.5,79,0.00,CLR,,0.00,WeatherDisplay:10.37,2013-06-12 10:53:00,
2013-06-12 05:58:00,76.6,70.0,29.66,South,190,11.5,11.5,80,0.00,CLR,,0.00,WeatherDisplay:10.37,2013-06-12 10:58:00,
2013-06-12 06:03:00,76.6,70.0,29.66,South,187,9.2,9.2,80,0.00,CLR,,0.00,WeatherDisplay:10.37,2013-06-12 11:03:00,
2013-06-12 06:08:00,76.5,69.9,29.65,South,173,16.1,16.1,80,0.00,CLR,,0.00,WeatherDisplay:10.37,2013-06-12 11:08:00,
2013-06-12 06:13:00,76.5,69.9,29.65,SSE,161,13.8,13.8,80,0.00,CLR,,0.00,WeatherDisplay:10.37,2013-06-12 11:13:00,
2013-06-12 06:18:00,76.5,69.9,29.65,South,180,10.4,10.4,80,0.00,CLR,,0.00,WeatherDisplay:10.37,2013-06-12 11:18:00,
2013-06-12 06:23:00,76.5,69.9,29.65,South,190,10.4,10.4,80,0.00,CLR,,0.00,WeatherDisplay:10.37,2013-06-12 11:23:00,
2013-06-12 06:28:00,76.7,69.7,29.64,SSW,209,18.4,18.4,79,0.00,CLR,,0.00,WeatherDisplay:10.37,2013-06-12 11:28:00,
2013-06-12 06:33:00,76.9,69.5,29.64,SSE,160,15.0,15.0,78,0.00,CLR,,0.00,WeatherDisplay:10.37,2013-06-12 11:33:00,
2013-06-12 06:38:00,77.1,69.7,29.64,SSW,192,10.4,10.4,78,0.00,CLR,,0.00,WeatherDisplay:10.37,2013-06-12 11:38:00,
2013-06-12 06:43:00,77.2,69.8,29.64,SSE,166,12.7,12.7,78,0.00,CLR,,0.00,WeatherDisplay:10.37,2013-06-12 11:43:00,
2013-06-12 06:48:00,77.4,69.6,29.64,SSW,202,17.3,17.3,77,0.00,CLR,,0.00,WeatherDisplay:10.37,2013-06-12 11:48:00,
2013-06-12 06:53:00,77.5,69.7,29.64,South,172,18.4,18.4,77,0.00,CLR,,0.00,WeatherDisplay:10.37,2013-06-12 11:53:00,
2013-06-12 06:58:00,77.6,69.8,29.64,South,178,11.5,11.5,77,0.00,CLR,,0.00,WeatherDisplay:10.37,2013-06-12 11:58:00,
2013-06-12 07:03:00,77.7,69.5,29.64,SSE,164,16.0,16.0,76,0.00,CLR,,0.00,WeatherDisplay:10.37,2013-06-12 12:03:00,
2013-06-12 07:08:00,77.9,69.7,29.64,South,188,18.4,18.4,76,0.00,CLR,,0.00,WeatherDisplay:10.37,2013-06-12 12:08:00,
2013-06-12 07:13:00,78.0,69.8,29.64,South,169,11.5,11.5,76,0.00,CLR,,0.00,WeatherDisplay:10.37,2013-06-12 12:13:00,
2013-06-12 07:18:00,78.0,69.8,29.64,South,182,6.9,6.9,76,0.00,CLR,,0.00,WeatherDisplay:10.37,2013-06-12 12:18:00,
2013-06-12 07:23:00,78.1,69.9,29.64,SE,140,12.7,12.7,76,0.00,CLR,,0.00,WeatherDisplay:10.37,2013-06-12 12:23:00,
2013-06-12 07:28:00,78.2,70.0,29.63,SSW,198,17.3,17.3,76,0.00,CLR,,0.00,WeatherDisplay:10.37,2013-06-12 12:28:00,
2013-06-12 07:33:00,78.3,70.1,29.63,South,178,9.2,9.2,76,0.00,CLR,,0.00,WeatherDisplay:10.37,2013-06-12 12:33:00,
2013-06-12 07:38:00,78.4,70.2,29.64,SW,230,15.0,15.0,76,0.00,CLR,,0.00,WeatherDisplay:10.37,2013-06-12 12:38:00,
2013-06-12 07:43:00,78.5,70.3,29.63,West,267,9.2,9.2,76,0.00,CLR,,0.00,WeatherDisplay:10.37,2013-06-12 12:43:00,
2013-06-12 07:48:00,78.7,70.5,29.63,South,184,13.0,13.0,76,0.00,CLR,,0.00,WeatherDisplay:10.37,2013-06-12 12:48:00,
2013-06-12 07:53:00,78.7,70.1,29.63,SSE,159,15.0,15.0,75,0.00,CLR,,0.00,WeatherDisplay:10.37,2013-06-12 12:53:00,
2013-06-12 07:58:00,78.9,70.3,29.62,SSW,196,11.5,11.5,75,0.00,CLR,,0.00,WeatherDisplay:10.37,2013-06-12 12:58:00,
2013-06-12 08:03:00,79.1,70.5,29.62,SSW,202,16.1,16.1,75,0.00,CLR,,0.00,WeatherDisplay:10.37,2013-06-12 13:03:00,
2013-06-12 08:08:00,79.2,70.2,29.62,South,170,20.7,20.7,74,0.00,CLR,,0.00,WeatherDisplay:10.37,2013-06-12 13:08:00,
2013-06-12 08:13:00,79.4,70.8,29.62,SW,226,11.0,11.0,75,0.00,CLR,,0.00,WeatherDisplay:10.37,2013-06-12 13:13:00,
2013-06-12 08:18:00,79.6,71.0,29.62,SW,236,17.3,17.3,75,0.00,CLR,,0.00,WeatherDisplay:10.37,2013-06-12 13:18:00,
2013-06-12 08:23:00,79.8,70.8,29.62,SSW,193,9.2,9.2,74,0.00,CLR,,0.00,WeatherDisplay:10.37,2013-06-12 13:23:00,
2013-06-12 08:28:00,80.1,70.7,29.62,South,180,18.4,18.4,73,0.00,CLR,,0.00,WeatherDisplay:10.37,2013-06-12 13:28:00,
2013-06-12 08:33:00,80.3,70.9,29.61,South,178,20.7,20.7,73,0.00,CLR,,0.00,WeatherDisplay:10.37,2013-06-12 13:33:00,
2013-06-12 08:38:00,80.6,70.7,29.61,South,182,13.8,13.8,72,0.00,CLR,,0.00,WeatherDisplay:10.37,2013-06-12 13:38:00,
2013-06-12 08:43:00,80.9,71.0,29.62,SSW,205,12.7,12.7,72,0.00,CLR,,0.00,WeatherDisplay:10.37,2013-06-12 13:43:00,
2013-06-12 08:48:00,81.2,70.9,29.62,SSW,203,14.0,14.0,71,0.00,CLR,,0.00,WeatherDisplay:10.37,2013-06-12 13:48:00,
2013-06-12 08:53:00,81.4,71.1,29.62,South,169,12.7,12.7,71,0.00,CLR,,0.00,WeatherDisplay:10.37,2013-06-12 13:53:00,
2013-06-12 08:58:00,81.5,71.2,29.62,South,171,11.0,11.0,71,0.00,CLR,,0.00,WeatherDisplay:10.37,2013-06-12 13:58:00,
2013-06-12 09:03:00,81.7,71.0,29.61,SSW,198,15.0,15.0,70,0.00,CLR,,0.00,WeatherDisplay:10.37,2013-06-12 14:03:00,
2013-06-12 09:08:00,82.0,71.7,29.61,South,186,12.7,12.7,71,0.00,CLR,,0.00,WeatherDisplay:10.37,2013-06-12 14:08:00,
2013-06-12 09:13:00,82.2,71.4,29.61,SSW,194,6.9,6.9,70,0.00,CLR,,0.00,WeatherDisplay:10.37,2013-06-12 14:13:00,
2013-06-12 09:18:00,82.6,71.8,29.61,SW,234,15.0,15.0,70,0.00,CLR,,0.00,WeatherDisplay:10.37,2013-06-12 14:18:00,
2013-06-12 09:23:00,82.8,71.6,29.61,SSW,199,11.5,11.5,69,0.00,CLR,,0.00,WeatherDisplay:10.37,2013-06-12 14:23:00,
2013-06-12 09:28:00,83.0,72.2,29.62,South,187,3.5,3.5,70,0.00,CLR,,0.00,WeatherDisplay:10.37,2013-06-12 14:28:00,
2013-06-12 09:33:00,83.4,71.7,29.62,SW,218,11.5,11.5,68,0.00,CLR,,0.00,WeatherDisplay:10.37,2013-06-12 14:33:00,
2013-06-12 09:38:00,83.5,71.8,29.62,SSW,203,13.8,13.8,68,0.00,CLR,,0.00,WeatherDisplay:10.37,2013-06-12 14:38:00,
2013-06-12 09:43:00,83.8,72.1,29.61,SW,227,11.5,11.5,68,0.00,CLR,,0.00,WeatherDisplay:10.37,2013-06-12 14:43:00,
2013-06-12 09:48:00,83.8,71.7,29.61,South,171,13.8,13.8,67,0.00,CLR,,0.00,WeatherDisplay:10.37,2013-06-12 14:48:00,
2013-06-12 09:53:00,84.2,72.5,29.61,South,188,9.2,9.2,68,0.00,CLR,,0.00,WeatherDisplay:10.37,2013-06-12 14:53:00,
2013-06-12 09:58:00,84.8,72.6,29.61,South,184,15.0,15.0,67,0.00,CLR,,0.00,WeatherDisplay:10.37,2013-06-12 14:58:00,
2013-06-12 10:03:00,85.0,72.4,29.61,SSW,198,8.1,8.1,66,0.00,CLR,,0.00,WeatherDisplay:10.37,2013-06-12 15:03:00,
2013-06-12 10:08:00,85.4,72.7,29.61,SSW,195,10.4,10.4,66,0.00,CLR,,0.00,WeatherDisplay:10.37,2013-06-12 15:08:00,
2013-06-12 10:13:00,85.7,73.0,29.61,South,186,5.8,5.8,66,0.00,CLR,,0.00,WeatherDisplay:10.37,2013-06-12 15:13:00,
2013-06-12 10:18:00,85.9,72.8,29.61,SSW,192,4.6,4.6,65,0.00,CLR,,0.00,WeatherDisplay:10.37,2013-06-12 15:18:00,
2013-06-12 10:23:00,86.5,73.3,29.61,SSW,192,4.6,4.6,65,0.00,CLR,,0.00,WeatherDisplay:10.37,2013-06-12 15:23:00,
2013-06-12 10:28:00,86.6,72.5,29.61,South,190,11.5,11.5,63,0.00,CLR,,0.00,WeatherDisplay:10.37,2013-06-12 15:28:00,
2013-06-12 10:33:00,86.7,72.6,29.61,SSW,200,11.0,11.0,63,0.00,CLR,,0.00,WeatherDisplay:10.37,2013-06-12 15:33:00,
2013-06-12 10:38:00,87.0,72.4,29.61,South,179,5.8,5.8,62,0.00,CLR,,0.00,WeatherDisplay:10.37,2013-06-12 15:38:00,
2013-06-12 10:43:00,87.0,71.9,29.61,SSW,196,12.7,12.7,61,0.00,CLR,,0.00,WeatherDisplay:10.37,2013-06-12 15:43:00,
2013-06-12 10:48:00,87.1,72.0,29.61,South,190,4.6,4.6,61,0.00,CLR,,0.00,WeatherDisplay:10.37,2013-06-12 15:48:00,
2013-06-12 10:53:00,87.4,72.3,29.62,SSW,198,9.0,9.0,61,0.00,CLR,,0.00,WeatherDisplay:10.37,2013-06-12 15:53:00,
2013-06-12 10:58:00,87.8,72.2,29.61,WSW,238,6.0,6.0,60,0.00,CLR,,0.00,WeatherDisplay:10.37,2013-06-12 15:58:00,
2013-06-12 11:03:00,87.8,71.7,29.62,SSW,194,18.4,18.4,59,0.00,CLR,,0.00,WeatherDisplay:10.37,2013-06-12 16:03:00,
2013-06-12 11:08:00,87.5,71.9,29.62,NW,305,5.8,5.8,60,0.00,CLR,,0.00,WeatherDisplay:10.37,2013-06-12 16:08:00,
2013-06-12 11:13:00,87.7,72.6,29.62,South,178,3.5,3.5,61,0.00,CLR,,0.00,WeatherDisplay:10.37,2013-06-12 16:13:00,
2013-06-12 11:18:00,88.0,72.4,29.62,SSW,198,11.5,11.5,60,0.00,CLR,,0.00,WeatherDisplay:10.37,2013-06-12 16:18:00,
2013-06-12 11:23:00,87.8,72.7,29.63,SSW,196,6.9,6.9,61,0.00,CLR,,0.00,WeatherDisplay:10.37,2013-06-12 16:23:00,
2013-06-12 11:28:00,88.3,72.7,29.62,WSW,241,5.8,5.8,60,0.00,CLR,,0.00,WeatherDisplay:10.37,2013-06-12 16:28:00,
2013-06-12 11:33:00,88.6,73.4,29.62,SSW,200,5.8,5.8,61,0.00,CLR,,0.00,WeatherDisplay:10.37,2013-06-12 16:33:00,
2013-06-12 11:38:00,88.8,73.6,29.62,WSW,242,6.9,6.9,61,0.00,CLR,,0.00,WeatherDisplay:10.37,2013-06-12 16:38:00,
2013-06-12 11:43:00,89.1,73.9,29.62,SSW,194,6.0,6.0,61,0.00,CLR,,0.00,WeatherDisplay:10.37,2013-06-12 16:43:00,
2013-06-12 11:48:00,88.9,72.2,29.62,SW,223,11.5,11.5,58,0.00,CLR,,0.00,WeatherDisplay:10.37,2013-06-12 16:48:00,
2013-06-12 11:53:00,89.0,72.8,29.62,West,267,3.5,3.5,59,0.00,CLR,,0.00,WeatherDisplay:10.37,2013-06-12 16:53:00,
2013-06-12 11:58:00,89.3,73.1,29.62,SSW,213,12.7,12.7,59,0.00,CLR,,0.00,WeatherDisplay:10.37,2013-06-12 16:58:00,
2013-06-12 12:03:00,89.5,73.8,29.63,SSW,213,10.4,10.4,60,0.00,CLR,,0.00,WeatherDisplay:10.37,2013-06-12 17:03:00,
2013-06-12 12:08:00,89.5,72.3,29.62,SW,225,3.5,3.5,57,0.00,CLR,,0.00,WeatherDisplay:10.37,2013-06-12 17:08:00,
2013-06-12 12:13:00,89.7,71.9,29.62,West,259,10.4,10.4,56,0.00,CLR,,0.00,WeatherDisplay:10.37,2013-06-12 17:13:00,
2013-06-12 12:18:00,89.8,73.0,29.62,SW,223,11.5,11.5,58,0.00,CLR,,0.00,WeatherDisplay:10.37,2013-06-12 17:18:00,
2013-06-12 12:24:00,90.1,72.8,29.61,SSW,210,11.5,11.5,57,0.00,CLR,,0.00,WeatherDisplay:10.37,2013-06-12 17:24:00,
2013-06-12 12:29:00,90.3,73.5,29.61,WNW,288,3.5,3.9,58,0.00,CLR,,0.00,WeatherDisplay:10.37,2013-06-12 17:29:00,
2013-06-12 12:34:00,91.0,73.1,29.62,SSW,213,9.2,9.2,56,0.00,CLR,,0.00,WeatherDisplay:10.37,2013-06-12 17:34:00,
2013-06-12 12:39:00,91.1,73.2,29.62,SW,221,1.2,2.0,56,0.00,CLR,,0.00,WeatherDisplay:10.37,2013-06-12 17:39:00,
2013-06-12 12:44:00,91.5,73.1,29.62,WSW,241,5.8,5.8,55,0.00,CLR,,0.00,WeatherDisplay:10.37,2013-06-12 17:44:00,
2013-06-12 12:49:00,91.7,72.7,29.62,WSW,254,3.5,3.7,54,0.00,CLR,,0.00,WeatherDisplay:10.37,2013-06-12 17:49:00,
2013-06-12 12:54:00,91.1,72.1,29.62,WSW,252,10.4,10.4,54,0.00,CLR,,0.00,WeatherDisplay:10.37,2013-06-12 17:54:00,
2013-06-12 12:59:00,91.0,73.1,29.62,SSW,213,10.4,10.4,56,0.00,CLR,,0.00,WeatherDisplay:10.37,2013-06-12 17:59:00,
2013-06-12 13:04:00,91.0,72.6,29.62,SSW,206,6.9,6.9,55,0.00,CLR,,0.00,WeatherDisplay:10.37,2013-06-12 18:04:00,
2013-06-12 13:09:00,91.0,72.6,29.62,SSW,193,11.5,11.5,55,0.00,CLR,,0.00,WeatherDisplay:10.37,2013-06-12 18:09:00,
2013-06-12 13:22:00,91.0,73.1,29.62,West,273,3.5,3.5,56,0.00,CLR,,0.00,WeatherDisplay:10.37,2013-06-12 18:22:00,
2013-06-12 13:30:00,91.0,73.1,29.62,West,273,3.0,3.0,56,0.00,CLR,,0.00,WeatherDisplay:10.37,2013-06-12 18:30:00,
2013-06-12 13:35:00,91.5,73.1,29.62,WNW,292,10.0,10.0,55,0.00,CLR,,0.00,WeatherDisplay:10.37,2013-06-12 18:35:00,
2013-06-12 13:40:00,91.7,72.1,29.62,WSW,258,10.4,10.4,53,0.00,CLR,,0.00,WeatherDisplay:10.37,2013-06-12 18:40:00,
2013-06-12 13:45:00,91.7,72.1,29.62,WSW,244,13.8,13.8,53,0.00,CLR,,0.00,WeatherDisplay:10.37,2013-06-12 18:45:00,
2013-06-12 13:50:00,91.7,72.1,29.63,WSW,242,18.4,18.4,53,0.00,CLR,,0.00,WeatherDisplay:10.37,2013-06-12 18:50:00,
2013-06-12 13:55:00,91.9,72.9,29.63,NNE,23,6.9,6.9,54,0.00,CLR,,0.00,WeatherDisplay:10.37,2013-06-12 18:55:00,
2013-06-12 14:00:00,92.1,72.5,29.63,West,265,9.2,9.2,53,0.00,CLR,,0.00,WeatherDisplay:10.37,2013-06-12 19:00:00,
2013-06-12 14:05:00,92.2,73.2,29.63,WSW,241,3.5,3.5,54,0.00,CLR,,0.00,WeatherDisplay:10.37,2013-06-12 19:05:00,
2013-06-12 14:10:00,92.6,72.4,29.62,WSW,237,5.8,5.8,52,0.00,CLR,,0.00,WeatherDisplay:10.37,2013-06-12 19:10:00,
2013-06-12 14:15:00,92.7,73.1,29.63,West,269,4.6,4.6,53,0.00,CLR,,0.00,WeatherDisplay:10.37,2013-06-12 19:15:00,
2013-06-12 14:20:00,93.0,72.8,29.63,WSW,257,4.6,4.6,52,0.00,CLR,,0.00,WeatherDisplay:10.37,2013-06-12 19:20:00,
2013-06-12 14:25:00,93.1,73.4,29.63,WSW,240,3.5,3.5,53,0.00,CLR,,0.00,WeatherDisplay:10.37,2013-06-12 19:25:00,
2013-06-12 14:30:00,93.5,73.8,29.63,WSW,245,4.6,4.6,53,0.00,CLR,,0.00,WeatherDisplay:10.37,2013-06-12 19:30:00,
2013-06-12 14:35:00,93.6,73.3,29.63,WSW,244,5.8,5.8,52,0.00,CLR,,0.00,WeatherDisplay:10.37,2013-06-12 19:35:00,
2013-06-12 14:40:00,93.7,72.8,29.63,West,261,2.3,2.3,51,0.00,CLR,,0.00,WeatherDisplay:10.37,2013-06-12 19:40:00,
2013-06-12 14:45:00,93.8,72.9,29.63,WSW,250,4.6,4.6,51,0.00,CLR,,0.00,WeatherDisplay:10.37,2013-06-12 19:45:00,
2013-06-12 14:50:00,93.6,72.7,29.63,WSW,244,5.8,5.8,51,0.00,CLR,,0.00,WeatherDisplay:10.37,2013-06-12 19:50:00,
2013-06-12 14:55:00,93.8,74.1,29.63,WSW,245,3.5,3.5,53,0.00,CLR,,0.00,WeatherDisplay:10.37,2013-06-12 19:55:00,
2013-06-12 15:00:00,94.0,73.7,29.63,WSW,242,3.5,3.5,52,0.00,CLR,,0.00,WeatherDisplay:10.37,2013-06-12 20:00:00,
2013-06-12 15:05:00,93.9,73.0,29.62,WSW,248,12.7,12.7,51,0.00,CLR,,0.00,WeatherDisplay:10.37,2013-06-12 20:05:00,
2013-06-12 15:10:00,93.6,72.7,29.63,West,260,9.0,9.0,51,0.00,CLR,,0.00,WeatherDisplay:10.37,2013-06-12 20:10:00,
2013-06-12 15:15:00,93.5,73.2,29.62,South,178,5.8,5.8,52,0.00,CLR,,0.00,WeatherDisplay:10.37,2013-06-12 20:15:00,
2013-06-12 15:20:00,93.9,74.2,29.63,South,189,2.3,2.3,53,0.00,CLR,,0.00,WeatherDisplay:10.37,2013-06-12 20:20:00,
2013-06-12 15:25:00,94.1,74.4,29.63,SSW,209,6.9,6.9,53,0.00,CLR,,0.00,WeatherDisplay:10.37,2013-06-12 20:25:00,
2013-06-12 15:30:00,94.1,73.8,29.62,WNW,286,2.3,2.7,52,0.00,CLR,,0.00,WeatherDisplay:10.37,2013-06-12 20:30:00,
2013-06-12 15:35:00,94.3,74.5,29.62,WNW,283,3.5,3.5,53,0.00,CLR,,0.00,WeatherDisplay:10.37,2013-06-12 20:35:00,
2013-06-12 15:40:00,94.0,74.3,29.63,SW,220,9.2,9.2,53,0.00,CLR,,0.00,WeatherDisplay:10.37,2013-06-12 20:40:00,
2013-06-12 15:45:00,94.3,74.5,29.63,SW,236,6.9,6.9,53,0.00,CLR,,0.00,WeatherDisplay:10.37,2013-06-12 20:45:00,
2013-06-12 15:50:00,94.6,73.7,29.63,WSW,244,3.5,3.5,51,0.00,CLR,,0.00,WeatherDisplay:10.37,2013-06-12 20:50:00,
2013-06-12 15:55:00,94.7,73.8,29.63,WSW,246,4.6,4.6,51,0.00,CLR,,0.00,WeatherDisplay:10.37,2013-06-12 20:55:00,
2013-06-12 16:00:00,94.5,73.6,29.63,West,259,2.3,2.3,51,0.00,CLR,,0.00,WeatherDisplay:10.37,2013-06-12 21:00:00,
2013-06-12 16:05:00,94.6,74.2,29.63,WSW,240,6.9,6.9,52,0.00,CLR,,0.00,WeatherDisplay:10.37,2013-06-12 21:05:00,
2013-06-12 16:10:00,94.4,73.5,29.64,WNW,292,5.8,5.8,51,0.00,CLR,,0.00,WeatherDisplay:10.37,2013-06-12 21:10:00,
2013-06-12 16:15:00,94.2,73.9,29.64,SW,218,12.0,12.0,52,0.00,CLR,,0.00,WeatherDisplay:10.37,2013-06-12 21:15:00,
2013-06-12 16:20:00,94.2,73.9,29.64,WNW,283,4.0,4.0,52,0.00,CLR,,0.00,WeatherDisplay:10.37,2013-06-12 21:20:00,
2013-06-12 16:25:00,94.5,74.2,29.64,WSW,251,3.5,3.5,52,0.00,CLR,,0.00,WeatherDisplay:10.37,2013-06-12 21:25:00,
2013-06-12 16:30:00,94.8,74.4,29.64,WSW,240,3.0,3.0,52,0.00,CLR,,0.00,WeatherDisplay:10.37,2013-06-12 21:30:00,
2013-06-12 16:35:00,95.0,74.0,29.64,SW,227,3.5,3.5,51,0.00,CLR,,0.00,WeatherDisplay:10.37,2013-06-12 21:35:00,
2013-06-12 16:40:00,95.2,73.6,29.64,SW,221,1.2,0.0,50,0.00,CLR,,0.00,WeatherDisplay:10.37,2013-06-12 21:40:00,
2013-06-12 16:45:00,95.3,73.7,29.64,SW,234,3.5,0.0,50,0.00,CLR,,0.00,WeatherDisplay:10.37,2013-06-12 21:45:00,
2013-06-12 16:50:00,95.3,74.3,29.64,SW,235,5.0,5.0,51,0.00,CLR,,0.00,WeatherDisplay:10.37,2013-06-12 21:50:00,
2013-06-12 16:55:00,95.0,72.8,29.64,WSW,252,3.5,3.5,49,0.00,CLR,,0.00,WeatherDisplay:10.37,2013-06-12 21:55:00,
2013-06-12 17:00:00,94.9,72.1,29.64,WNW,300,4.6,4.6,48,0.00,CLR,,0.00,WeatherDisplay:10.37,2013-06-12 22:00:00,
2013-06-12 17:05:00,94.9,72.1,29.64,WSW,248,4.6,4.6,48,0.00,CLR,,0.00,WeatherDisplay:10.37,2013-06-12 22:05:00,
2013-06-12 17:10:00,94.7,73.2,29.64,WSW,249,4.6,4.6,50,0.00,CLR,,0.00,WeatherDisplay:10.37,2013-06-12 22:10:00,
2013-06-12 17:15:00,94.6,73.1,29.64,WSW,248,2.3,2.3,50,0.00,CLR,,0.00,WeatherDisplay:10.37,2013-06-12 22:15:00,
2013-06-12 17:21:00,94.7,73.8,29.65,WSW,250,3.5,3.5,51,0.00,CLR,,0.00,WeatherDisplay:10.37,2013-06-12 22:21:00,
2013-06-12 17:26:00,94.9,73.4,29.65,WSW,251,1.2,1.2,50,0.00,CLR,,0.00,WeatherDisplay:10.37,2013-06-12 22:26:00,
2013-06-12 17:31:00,95.0,73.4,29.65,WSW,252,1.2,1.2,50,0.00,CLR,,0.00,WeatherDisplay:10.37,2013-06-12 22:31:00,
2013-06-12 17:36:00,94.9,73.4,29.65,WNW,290,3.5,3.5,50,0.00,CLR,,0.00,WeatherDisplay:10.37,2013-06-12 22:36:00,
2013-06-12 17:41:00,94.7,73.2,29.64,WNW,290,2.3,2.3,50,0.00,CLR,,0.00,WeatherDisplay:10.37,2013-06-12 22:41:00,
2013-06-12 17:46:00,94.8,73.3,29.64,WNW,285,2.3,2.3,50,0.00,CLR,,0.00,WeatherDisplay:10.37,2013-06-12 22:46:00,
2013-06-12 17:51:00,94.6,73.1,29.64,WNW,284,3.5,3.5,50,0.00,CLR,,0.00,WeatherDisplay:10.37,2013-06-12 22:51:00,
2013-06-12 17:56:00,94.4,72.9,29.64,WNW,298,1.2,1.2,50,0.00,CLR,,0.00,WeatherDisplay:10.37,2013-06-12 22:56:00,
2013-06-12 18:01:00,94.1,72.6,29.64,WNW,298,1.2,1.2,50,0.00,CLR,,0.00,WeatherDisplay:10.37,2013-06-12 23:01:00,
2013-06-12 18:06:00,93.9,73.0,29.64,WNW,297,1.0,1.0,51,0.00,CLR,,0.00,WeatherDisplay:10.37,2013-06-12 23:06:00,
2013-06-12 18:11:00,93.9,73.0,29.64,WNW,298,1.2,0.0,51,0.00,CLR,,0.00,WeatherDisplay:10.37,2013-06-12 23:11:00,
2013-06-12 18:16:00,93.7,73.4,29.64,SW,218,8.1,8.1,52,0.00,CLR,,0.00,WeatherDisplay:10.37,2013-06-12 23:16:00,
2013-06-12 18:21:00,93.2,73.0,29.64,SW,219,1.2,1.2,52,0.00,CLR,,0.00,WeatherDisplay:10.37,2013-06-12 23:21:00,
2013-06-12 18:26:00,92.7,73.1,29.64,SW,219,1.2,1.2,53,0.00,CLR,,0.00,WeatherDisplay:10.37,2013-06-12 23:26:00,
2013-06-12 18:31:00,92.3,72.7,29.65,SW,222,5.8,5.8,53,0.00,CLR,,0.00,WeatherDisplay:10.37,2013-06-12 23:31:00,
2013-06-12 18:36:00,92.0,72.4,29.65,SW,223,4.6,4.6,53,0.00,CLR,,0.00,WeatherDisplay:10.37,2013-06-12 23:36:00,
2013-06-12 18:41:00,91.7,72.7,29.65,SW,225,1.2,1.2,54,0.00,CLR,,0.00,WeatherDisplay:10.37,2013-06-12 23:41:00,
2013-06-12 18:46:00,91.6,72.6,29.65,SW,225,2.3,2.3,54,0.00,CLR,,0.00,WeatherDisplay:10.37,2013-06-12 23:46:00,
2013-06-12 18:51:00,91.3,72.9,29.65,SW,229,4.6,4.6,55,0.00,CLR,,0.00,WeatherDisplay:10.37,2013-06-12 23:51:00,
2013-06-12 18:56:00,91.1,73.2,29.65,SW,229,1.2,1.2,56,0.00,CLR,,0.00,WeatherDisplay:10.37,2013-06-12 23:56:00,
2013-06-12 19:01:00,90.9,72.5,29.65,SW,229,3.5,3.5,55,0.00,CLR,,0.00,WeatherDisplay:10.37,2013-06-13 00:01:00,
2013-06-12 19:06:00,90.7,72.3,29.65,SW,229,1.2,0.0,55,0.00,CLR,,0.00,WeatherDisplay:10.37,2013-06-13 00:06:00,
2013-06-12 19:11:00,90.6,72.8,29.65,SW,229,0.0,0.0,56,0.00,CLR,,0.00,WeatherDisplay:10.37,2013-06-13 00:11:00,
2013-06-12 19:16:00,90.5,72.7,29.65,SW,229,3.5,3.5,56,0.00,CLR,,0.00,WeatherDisplay:10.37,2013-06-13 00:16:00,
2013-06-12 19:21:00,90.3,73.0,29.66,SW,229,0.0,0.0,57,0.00,CLR,,0.00,WeatherDisplay:10.37,2013-06-13 00:21:00,
2013-06-12 19:26:00,90.2,72.9,29.66,SW,229,1.2,0.0,57,0.00,CLR,,0.00,WeatherDisplay:10.37,2013-06-13 00:26:00,
2013-06-12 19:31:00,90.0,72.7,29.66,SW,229,0.0,0.0,57,0.00,CLR,,0.00,WeatherDisplay:10.37,2013-06-13 00:31:00,
2013-06-12 19:36:00,89.9,72.6,29.66,SW,229,1.2,1.2,57,0.00,CLR,,0.00,WeatherDisplay:10.37,2013-06-13 00:36:00,
2013-06-12 19:41:00,89.7,73.0,29.66,SW,229,0.0,0.0,58,0.00,CLR,,0.00,WeatherDisplay:10.37,2013-06-13 00:41:00,
2013-06-12 19:46:00,89.5,72.8,29.66,SW,229,0.0,0.0,58,0.00,CLR,,0.00,WeatherDisplay:10.37,2013-06-13 00:46:00,
2013-06-12 19:51:00,89.3,72.6,29.66,SW,229,2.3,2.3,58,0.00,CLR,,0.00,WeatherDisplay:10.37,2013-06-13 00:51:00,
2013-06-12 19:56:00,89.1,72.9,29.66,SW,229,2.3,2.3,59,0.00,CLR,,0.00,WeatherDisplay:10.37,2013-06-13 00:56:00,
2013-06-12 20:01:00,88.8,73.1,29.66,SW,229,0.0,0.0,60,0.00,CLR,,0.00,WeatherDisplay:10.37,2013-06-13 01:01:00,
2013-06-12 20:06:00,88.6,72.9,29.66,SW,229,0.0,0.0,60,0.00,CLR,,0.00,WeatherDisplay:10.37,2013-06-13 01:06:00,
2013-06-12 20:11:00,88.4,73.2,29.66,SW,229,0.0,0.0,61,0.00,CLR,,0.00,WeatherDisplay:10.37,2013-06-13 01:11:00,
2013-06-12 20:16:00,88.1,73.4,29.66,SW,229,0.0,0.0,62,0.00,CLR,,0.00,WeatherDisplay:10.37,2013-06-13 01:16:00,
2013-06-12 20:21:00,87.9,73.3,29.66,SW,229,0.0,0.0,62,0.00,CLR,,0.00,WeatherDisplay:10.37,2013-06-13 01:21:00,
2013-06-12 20:26:00,87.6,73.4,29.67,SW,229,0.0,0.0,63,0.00,CLR,,0.00,WeatherDisplay:10.37,2013-06-13 01:26:00,
2013-06-12 20:31:00,87.4,73.7,29.67,SW,229,0.0,0.0,64,0.00,CLR,,0.00,WeatherDisplay:10.37,2013-06-13 01:31:00,
2013-06-12 20:36:00,87.1,73.4,29.67,SW,229,0.0,0.0,64,0.00,CLR,,0.00,WeatherDisplay:10.37,2013-06-13 01:36:00,
2013-06-12 20:41:00,87.0,73.8,29.67,SW,229,0.0,0.0,65,0.00,CLR,,0.00,WeatherDisplay:10.37,2013-06-13 01:41:00,
2013-06-12 20:46:00,86.7,73.5,29.67,SW,229,1.2,0.0,65,0.00,CLR,,0.00,WeatherDisplay:10.37,2013-06-13 01:46:00,
2013-06-12 20:51:00,86.4,73.2,29.67,WSW,244,2.3,2.3,65,0.00,CLR,,0.00,WeatherDisplay:10.37,2013-06-13 01:51:00,
2013-06-12 20:56:00,86.2,73.0,29.68,WSW,244,0.0,0.0,65,0.00,CLR,,0.00,WeatherDisplay:10.37,2013-06-13 01:56:00,
2013-06-12 21:01:00,86.0,72.9,29.68,WSW,244,0.0,0.0,65,0.00,CLR,,0.00,WeatherDisplay:10.37,2013-06-13 02:01:00,
2013-06-12 21:06:00,85.8,72.2,29.68,WSW,244,0.0,0.0,64,0.00,CLR,,0.00,WeatherDisplay:10.37,2013-06-13 02:06:00,
2013-06-12 21:11:00,85.7,72.1,29.68,WSW,244,1.2,1.2,64,0.00,CLR,,0.00,WeatherDisplay:10.37,2013-06-13 02:11:00,
2013-06-12 21:16:00,85.7,71.7,29.68,WSW,245,1.2,1.2,63,0.00,CLR,,0.00,WeatherDisplay:10.37,2013-06-13 02:16:00,
2013-06-12 21:21:00,85.7,71.7,29.69,WSW,245,1.2,0.0,63,0.00,CLR,,0.00,WeatherDisplay:10.37,2013-06-13 02:21:00,
2013-06-12 21:26:00,85.7,71.7,29.69,WSW,245,1.2,1.2,63,0.00,CLR,,0.00,WeatherDisplay:10.37,2013-06-13 02:26:00,
2013-06-12 21:31:00,85.5,71.5,29.69,WSW,245,1.2,1.2,63,0.00,CLR,,0.00,WeatherDisplay:10.37,2013-06-13 02:31:00,
2013-06-12 21:36:00,85.2,71.2,29.70,WSW,246,2.3,2.3,63,0.00,CLR,,0.00,WeatherDisplay:10.37,2013-06-13 02:36:00,
2013-06-12 21:41:00,85.0,71.0,29.70,NNW,347,2.0,2.0,63,0.00,CLR,,0.00,WeatherDisplay:10.37,2013-06-13 02:41:00,
2013-06-12 21:46:00,84.7,69.8,29.70,North,5,5.8,5.8,61,0.00,CLR,,0.00,WeatherDisplay:10.37,2013-06-13 02:46:00,
2013-06-12 21:51:00,84.5,69.6,29.70,North,355,3.5,3.5,61,0.00,CLR,,0.00,WeatherDisplay:10.37,2013-06-13 02:51:00,
2013-06-12 21:56:00,84.3,69.4,29.71,North,355,3.5,3.5,61,0.00,CLR,,0.00,WeatherDisplay:10.37,2013-06-13 02:56:00,
2013-06-12 22:01:00,84.1,69.2,29.71,North,355,4.6,4.6,61,0.00,CLR,,0.00,WeatherDisplay:10.37,2013-06-13 03:01:00,
2013-06-12 22:06:00,83.8,68.9,29.72,North,349,3.5,3.5,61,0.00,CLR,,0.00,WeatherDisplay:10.37,2013-06-13 03:06:00,
2013-06-12 22:11:00,83.6,68.2,29.72,NNW,346,4.6,4.6,60,0.00,CLR,,0.00,WeatherDisplay:10.37,2013-06-13 03:11:00,
2013-06-12 22:16:00,83.3,68.0,29.72,North,355,3.5,3.5,60,0.00,CLR,,0.00,WeatherDisplay:10.37,2013-06-13 03:16:00,
2013-06-12 22:21:00,83.1,67.8,29.73,North,349,4.6,4.6,60,0.00,CLR,,0.00,WeatherDisplay:10.37,2013-06-13 03:21:00,
2013-06-12 22:26:00,83.0,68.2,29.73,NNW,344,4.6,4.6,61,0.00,CLR,,0.00,WeatherDisplay:10.37,2013-06-13 03:26:00,
2013-06-12 22:31:00,82.6,67.8,29.74,NNE,21,5.8,5.8,61,0.00,CLR,,0.00,WeatherDisplay:10.37,2013-06-13 03:31:00,
2013-06-12 22:36:00,82.1,67.3,29.74,NNE,19,3.5,3.5,61,0.00,CLR,,0.00,WeatherDisplay:10.37,2013-06-13 03:36:00,
2013-06-12 22:41:00,81.8,67.0,29.75,North,360,10.4,10.4,61,0.00,CLR,,0.00,WeatherDisplay:10.37,2013-06-13 03:41:00,
2013-06-12 22:46:00,81.4,66.7,29.75,NNW,346,12.7,12.7,61,0.00,CLR,,0.00,WeatherDisplay:10.37,2013-06-13 03:46:00,
2013-06-12 22:51:00,81.2,66.5,29.75,North,9,5.8,5.8,61,0.00,CLR,,0.00,WeatherDisplay:10.37,2013-06-13 03:51:00,
2013-06-12 22:56:00,80.9,65.7,29.75,NNW,348,13.8,13.8,60,0.00,CLR,,0.00,WeatherDisplay:10.37,2013-06-13 03:56:00,
2013-06-12 23:01:00,80.6,65.4,29.75,North,351,3.5,3.5,60,0.00,CLR,,0.00,WeatherDisplay:10.37,2013-06-13 04:01:00,
2013-06-12 23:02:00,80.6,65.4,29.75,NNW,346,4.0,4.0,60,0.00,CLR,,0.00,WeatherDisplay:10.37,2013-06-13 04:02:00,
2013-06-12 23:07:00,80.2,65.5,29.76,North,355,6.9,6.9,61,0.00,CLR,,0.00,WeatherDisplay:10.37,2013-06-13 04:07:00,
2013-06-12 23:12:00,79.9,65.2,29.76,North,355,2.3,2.3,61,0.00,CLR,,0.00,WeatherDisplay:10.37,2013-06-13 04:12:00,
2013-06-12 23:17:00,79.4,64.8,29.75,North,360,5.8,5.8,61,0.00,CLR,,0.00,WeatherDisplay:10.37,2013-06-13 04:17:00,
2013-06-12 23:22:00,79.2,65.1,29.76,WNW,293,9.2,9.2,62,0.00,CLR,,0.00,WeatherDisplay:10.37,2013-06-13 04:22:00,
2013-06-12 23:27:00,78.7,64.1,29.76,North,5,12.7,12.7,61,0.00,CLR,,0.00,WeatherDisplay:10.37,2013-06-13 04:27:00,
2013-06-12 23:32:00,78.5,63.9,29.77,NNE,20,19.6,19.6,61,0.00,CLR,,0.00,WeatherDisplay:10.37,2013-06-13 04:32:00,
2013-06-12 23:37:00,78.2,63.6,29.77,NNW,346,2.3,2.3,61,0.00,CLR,,0.00,WeatherDisplay:10.37,2013-06-13 04:37:00,
2013-06-12 23:42:00,77.8,63.7,29.77,NNW,344,3.5,3.5,62,0.00,CLR,,0.00,WeatherDisplay:10.37,2013-06-13 04:42:00,
2013-06-12 23:47:00,77.6,63.5,29.77,North,360,6.9,6.9,62,0.00,CLR,,0.00,WeatherDisplay:10.37,2013-06-13 04:47:00,
2013-06-12 23:52:00,77.3,63.3,29.78,North,5,12.0,12.0,62,0.00,CLR,,0.00,WeatherDisplay:10.37,2013-06-13 04:52:00,
2013-06-12 23:57:00,76.9,62.9,29.78,NE,47,6.9,6.9,62,0.00,CLR,,0.00,WeatherDisplay:10.37,2013-06-13 04:57:00,